createdAt,value
2017-10-16T00:00:38.946Z,71.00
2017-10-16T00:03:06.131Z,71.00
2017-10-16T00:05:33.327Z,71.00
2017-10-16T00:08:00.472Z,71.00
2017-10-16T00:10:27.620Z,70.90
2017-10-16T00:12:54.809Z,71.10
2017-10-16T00:15:21.952Z,71.10
2017-10-16T00:17:49.142Z,71.20
2017-10-16T00:20:16.292Z,71.40
2017-10-16T00:22:43.435Z,71.30
2017-10-16T00:25:10.639Z,71.10
2017-10-16T00:27:37.793Z,71.00
2017-10-16T00:30:04.952Z,70.90
2017-10-16T00:32:32.132Z,70.90
2017-10-16T00:34:59.280Z,70.90
2017-10-16T00:37:26.472Z,70.90
2017-10-16T00:39:54.388Z,71.00
2017-10-16T00:42:21.536Z,71.00
2017-10-16T00:44:48.721Z,70.80
2017-10-16T00:47:15.881Z,71.00
2017-10-16T00:49:43.060Z,71.20
2017-10-16T00:52:10.247Z,71.30
2017-10-16T00:54:37.429Z,71.10
2017-10-16T00:57:04.576Z,71.00
2017-10-16T00:59:31.760Z,71.00
2017-10-16T01:01:59.681Z,70.90
2017-10-16T01:04:27.653Z,70.90
2017-10-16T01:06:54.805Z,70.90
2017-10-16T01:09:21.953Z,70.80
2017-10-16T01:11:50.058Z,70.80
2017-10-16T01:14:17.982Z,70.90
2017-10-16T01:16:45.179Z,70.90
2017-10-16T01:19:13.102Z,71.00
2017-10-16T01:21:40.300Z,71.00
2017-10-16T01:24:08.220Z,71.10
2017-10-16T01:26:35.371Z,71.10
2017-10-16T01:29:02.551Z,71.10
2017-10-16T01:31:29.745Z,71.00
2017-10-16T01:33:56.887Z,70.90
2017-10-16T01:36:24.804Z,70.90
2017-10-16T01:38:51.984Z,70.90
2017-10-16T01:41:19.172Z,70.80
2017-10-16T01:43:46.323Z,70.40
2017-10-16T01:46:13.513Z,70.10
2017-10-16T01:48:40.664Z,69.90
2017-10-16T01:51:07.856Z,69.70
2017-10-16T01:53:35.771Z,69.60
2017-10-16T01:56:02.923Z,69.60
2017-10-16T01:58:30.120Z,69.60
2017-10-16T02:00:57.273Z,69.60
2017-10-16T02:03:24.427Z,69.60
2017-10-16T02:05:52.393Z,69.80
2017-10-16T02:08:20.316Z,69.70
2017-10-16T02:10:47.467Z,69.60
2017-10-16T02:13:14.664Z,69.70
2017-10-16T02:15:42.589Z,70.10
2017-10-16T02:18:09.749Z,69.90
2017-10-16T02:20:36.936Z,69.90
2017-10-16T02:23:04.856Z,70.60
2017-10-16T02:25:32.036Z,70.40
2017-10-16T02:27:59.188Z,70.10
2017-10-16T02:30:27.162Z,69.90
2017-10-16T02:32:54.317Z,70.00
2017-10-16T02:35:21.465Z,70.00
2017-10-16T02:37:48.653Z,70.00
2017-10-16T02:40:16.565Z,70.00
2017-10-16T02:42:43.753Z,70.00
2017-10-16T02:45:10.904Z,69.90
2017-10-16T02:47:38.095Z,69.50
2017-10-16T02:50:05.275Z,70.00
2017-10-16T02:52:32.461Z,70.00
2017-10-16T02:55:00.387Z,70.30
2017-10-16T02:57:27.569Z,70.30
2017-10-16T02:59:54.711Z,70.30
2017-10-16T03:02:21.892Z,70.00
2017-10-16T03:04:49.811Z,69.90
2017-10-16T03:07:16.995Z,69.90
2017-10-16T03:09:44.140Z,69.70
2017-10-16T03:12:11.337Z,69.70
2017-10-16T03:14:38.494Z,69.70
2017-10-16T03:17:05.645Z,69.70
2017-10-16T03:19:32.829Z,69.60
2017-10-16T03:21:59.979Z,69.70
2017-10-16T03:24:27.168Z,69.80
2017-10-16T03:26:55.082Z,70.00
2017-10-16T03:29:22.263Z,70.00
2017-10-16T03:31:49.439Z,70.10
2017-10-16T03:34:17.391Z,69.90
2017-10-16T03:36:44.576Z,69.90
2017-10-16T03:39:12.492Z,69.80
2017-10-16T03:41:39.677Z,69.80
2017-10-16T03:44:06.829Z,69.70
2017-10-16T03:46:34.023Z,69.30
2017-10-16T03:49:01.201Z,69.60
2017-10-16T03:51:28.352Z,69.50
2017-10-16T03:53:55.535Z,69.30
2017-10-16T03:56:23.491Z,70.20
2017-10-16T03:58:50.641Z,69.60
2017-10-16T04:01:17.823Z,69.90
2017-10-16T04:03:45.771Z,69.90
2017-10-16T04:06:12.972Z,69.90
2017-10-16T04:08:40.125Z,69.60
2017-10-16T04:11:07.275Z,69.50
2017-10-16T04:13:34.448Z,69.60
2017-10-16T04:16:01.632Z,69.50
2017-10-16T04:18:28.815Z,69.50
2017-10-16T04:20:56.010Z,69.60
2017-10-16T04:23:23.167Z,69.60
2017-10-16T04:25:50.320Z,69.60
2017-10-16T04:28:17.505Z,69.60
2017-10-16T04:30:45.426Z,69.80
2017-10-16T04:33:12.615Z,69.80
2017-10-16T04:35:40.538Z,69.80
2017-10-16T04:38:07.692Z,69.60
2017-10-16T04:40:34.886Z,69.60
2017-10-16T04:43:02.042Z,69.50
2017-10-16T04:45:29.999Z,69.40
2017-10-16T04:47:57.168Z,69.40
2017-10-16T04:50:25.089Z,70.10
2017-10-16T04:52:52.280Z,69.50
2017-10-16T04:55:20.203Z,69.90
2017-10-16T04:57:47.352Z,69.40
2017-10-16T05:00:14.536Z,69.70
2017-10-16T05:02:41.688Z,69.60
2017-10-16T05:05:08.880Z,69.40
2017-10-16T05:07:36.081Z,69.00
2017-10-16T05:10:03.236Z,69.10
2017-10-16T05:12:30.388Z,69.30
2017-10-16T05:14:57.567Z,69.20
2017-10-16T05:17:25.481Z,69.20
2017-10-16T05:19:52.674Z,69.20
2017-10-16T05:22:19.825Z,69.20
2017-10-16T05:24:47.052Z,69.20
2017-10-16T05:27:14.256Z,69.40
2017-10-16T05:29:42.173Z,69.40
2017-10-16T05:32:09.320Z,69.40
2017-10-16T05:34:36.508Z,69.30
2017-10-16T05:37:03.660Z,69.10
2017-10-16T05:39:31.588Z,69.20
2017-10-16T05:41:58.765Z,69.00
2017-10-16T05:44:25.972Z,69.10
2017-10-16T05:46:53.132Z,69.30
2017-10-16T05:49:20.283Z,69.10
2017-10-16T05:51:47.475Z,68.80
2017-10-16T05:54:14.621Z,68.70
2017-10-16T05:56:41.772Z,68.30
2017-10-16T05:59:08.953Z,68.00
2017-10-16T06:01:36.876Z,67.70
2017-10-16T06:04:04.071Z,67.70
2017-10-16T06:06:31.991Z,67.50
2017-10-16T06:08:59.141Z,67.40
2017-10-16T06:11:26.336Z,67.50
2017-10-16T06:13:54.255Z,67.60
2017-10-16T06:16:21.412Z,67.60
2017-10-16T06:18:48.636Z,67.70
2017-10-16T06:21:15.791Z,67.80
2017-10-16T06:23:42.951Z,67.90
2017-10-16T06:26:10.152Z,68.10
2017-10-16T06:28:37.300Z,68.30
2017-10-16T06:31:04.448Z,68.40
2017-10-16T06:33:31.647Z,68.60
2017-10-16T06:35:58.799Z,68.80
2017-10-16T06:38:26.026Z,69.10
2017-10-16T06:40:53.180Z,69.00
2017-10-16T06:43:20.335Z,68.80
2017-10-16T06:45:47.524Z,68.80
2017-10-16T06:48:15.441Z,68.80
2017-10-16T06:50:42.658Z,68.80
2017-10-16T06:53:09.820Z,68.90
2017-10-16T06:55:36.977Z,68.80
2017-10-16T06:58:04.169Z,68.90
2017-10-16T07:00:32.134Z,68.90
2017-10-16T07:02:59.332Z,69.00
2017-10-16T07:05:26.488Z,69.00
2017-10-16T07:07:53.647Z,68.90
2017-10-16T07:10:20.837Z,69.00
2017-10-16T07:12:49.181Z,69.00
2017-10-16T07:15:17.171Z,69.00
2017-10-16T07:17:44.324Z,69.00
2017-10-16T07:20:12.292Z,69.40
2017-10-16T07:22:39.448Z,69.40
2017-10-16T07:25:06.959Z,69.20
2017-10-16T07:27:34.976Z,69.10
2017-10-16T07:30:02.163Z,69.00
2017-10-16T07:32:30.084Z,70.00
2017-10-16T07:34:57.256Z,69.20
2017-10-16T07:37:24.603Z,69.20
2017-10-16T07:39:51.799Z,69.00
2017-10-16T07:42:19.720Z,69.10
2017-10-16T07:44:46.917Z,69.00
2017-10-16T07:47:14.835Z,69.00
2017-10-16T07:49:42.007Z,69.00
2017-10-16T07:52:09.203Z,69.10
2017-10-16T07:54:36.356Z,69.20
2017-10-16T07:57:03.552Z,69.20
2017-10-16T07:59:30.708Z,69.20
2017-10-16T08:01:57.855Z,69.60
2017-10-16T08:04:25.051Z,69.40
2017-10-16T08:06:52.970Z,69.20
2017-10-16T08:09:20.241Z,69.20
2017-10-16T08:11:47.759Z,69.10
2017-10-16T08:14:14.928Z,69.20
2017-10-16T08:16:42.117Z,69.10
2017-10-16T08:19:09.272Z,69.10
2017-10-16T08:21:36.472Z,69.20
2017-10-16T08:24:03.635Z,69.10
2017-10-16T08:26:30.797Z,69.10
2017-10-16T08:28:57.952Z,69.10
2017-10-16T08:31:25.099Z,69.20
2017-10-16T08:33:52.287Z,69.20
2017-10-16T08:36:20.207Z,70.20
2017-10-16T08:38:47.359Z,69.40
2017-10-16T08:41:14.524Z,69.40
2017-10-16T08:43:41.675Z,69.20
2017-10-16T08:46:08.864Z,69.30
2017-10-16T08:48:36.777Z,69.50
2017-10-16T08:51:03.935Z,69.20
2017-10-16T08:53:31.083Z,69.30
2017-10-16T08:55:58.235Z,69.30
2017-10-16T08:58:25.392Z,70.00
2017-10-16T09:00:52.582Z,69.30
2017-10-16T09:03:20.505Z,69.80
2017-10-16T09:05:47.652Z,69.40
2017-10-16T09:08:14.797Z,69.40
2017-10-16T09:10:41.955Z,69.50
2017-10-16T09:13:09.110Z,69.50
2017-10-16T09:15:36.257Z,69.60
2017-10-16T09:18:03.404Z,69.60
2017-10-16T09:20:30.551Z,69.60
2017-10-16T09:22:57.703Z,69.50
2017-10-16T09:25:24.887Z,69.50
2017-10-16T09:27:52.031Z,69.50
2017-10-16T09:30:19.224Z,69.60
2017-10-16T09:32:47.147Z,69.60
2017-10-16T09:35:14.336Z,69.60
2017-10-16T09:37:41.520Z,69.60
2017-10-16T09:40:08.667Z,69.60
2017-10-16T09:42:35.861Z,69.60
2017-10-16T09:45:03.784Z,69.60
2017-10-16T09:47:30.927Z,70.40
2017-10-16T09:49:58.872Z,69.80
2017-10-16T09:52:26.016Z,69.60
2017-10-16T09:54:53.197Z,69.60
2017-10-16T09:57:21.107Z,69.60
2017-10-16T09:59:48.289Z,69.60
2017-10-16T10:02:15.486Z,69.80
2017-10-16T10:04:42.633Z,69.70
2017-10-16T10:07:09.775Z,69.70
2017-10-16T10:09:37.724Z,69.80
2017-10-16T10:12:04.880Z,69.80
2017-10-16T10:14:32.851Z,70.60
2017-10-16T10:17:00.770Z,69.90
2017-10-16T10:19:27.921Z,69.80
2017-10-16T10:21:55.108Z,69.90
2017-10-16T10:24:22.313Z,69.90
2017-10-16T10:26:49.472Z,70.50
2017-10-16T10:29:16.628Z,69.90
2017-10-16T10:31:43.812Z,70.00
2017-10-16T10:34:10.959Z,70.00
2017-10-16T10:36:38.157Z,70.00
2017-10-16T10:39:05.321Z,70.10
2017-10-16T10:41:32.488Z,70.10
2017-10-16T10:43:59.683Z,70.10
2017-10-16T10:46:27.615Z,70.20
2017-10-16T10:48:54.764Z,70.20
2017-10-16T10:51:21.947Z,70.20
2017-10-16T10:53:49.103Z,70.20
2017-10-16T10:56:16.295Z,70.30
2017-10-16T10:58:43.448Z,70.30
2017-10-16T11:01:10.600Z,70.30
2017-10-16T11:03:37.784Z,70.40
2017-10-16T11:06:04.963Z,70.40
2017-10-16T11:08:32.885Z,71.10
2017-10-16T11:11:00.085Z,70.50
2017-10-16T11:13:27.236Z,70.50
2017-10-16T11:15:54.391Z,70.60
2017-10-16T11:18:22.356Z,70.60
2017-10-16T11:20:50.288Z,70.40
2017-10-16T11:23:17.440Z,70.40
2017-10-16T11:25:44.640Z,70.50
2017-10-16T11:28:12.554Z,70.60
2017-10-16T11:30:39.702Z,70.60
2017-10-16T11:33:06.901Z,70.70
2017-10-16T11:35:34.826Z,70.70
2017-10-16T11:38:01.987Z,70.70
2017-10-16T11:40:29.184Z,70.70
2017-10-16T11:42:57.108Z,70.70
2017-10-16T11:45:24.256Z,70.70
2017-10-16T11:47:51.437Z,70.80
2017-10-16T11:50:18.627Z,70.80
2017-10-16T11:52:45.820Z,70.80
2017-10-16T11:55:12.968Z,70.90
2017-10-16T11:57:40.114Z,71.00
2017-10-16T12:00:07.303Z,71.00
2017-10-16T12:02:34.457Z,70.90
2017-10-16T12:05:02.409Z,71.10
2017-10-16T12:07:29.557Z,71.00
2017-10-16T12:09:56.740Z,71.00
2017-10-16T12:12:24.656Z,71.80
2017-10-16T12:14:51.846Z,71.20
2017-10-16T12:17:19.003Z,71.10
2017-10-16T12:19:46.923Z,71.10
2017-10-16T12:22:14.104Z,71.10
2017-10-16T12:24:41.258Z,71.10
2017-10-16T12:27:08.456Z,70.90
2017-10-16T12:29:35.609Z,70.80
2017-10-16T12:32:02.764Z,70.70
2017-10-16T12:34:29.947Z,70.70
2017-10-16T12:36:57.106Z,70.70
2017-10-16T12:39:24.303Z,70.50
2017-10-16T12:41:51.456Z,70.70
2017-10-16T12:44:18.599Z,70.70
2017-10-16T12:46:46.547Z,70.60
2017-10-16T12:49:13.755Z,70.60
2017-10-16T12:51:40.905Z,70.60
2017-10-16T12:54:08.051Z,70.50
2017-10-16T12:56:35.236Z,70.50
2017-10-16T12:59:02.384Z,70.60
2017-10-16T13:01:29.559Z,70.50
2017-10-16T13:03:57.488Z,71.20
2017-10-16T13:06:24.663Z,70.50
2017-10-16T13:08:51.816Z,70.60
2017-10-16T13:11:18.996Z,70.60
2017-10-16T13:13:46.915Z,70.60
2017-10-16T13:16:14.108Z,70.60
2017-10-16T13:18:42.031Z,70.70
2017-10-16T13:21:09.185Z,70.60
2017-10-16T13:23:36.379Z,70.60
2017-10-16T13:26:04.305Z,70.70
2017-10-16T13:28:32.216Z,71.30
2017-10-16T13:31:00.169Z,70.70
2017-10-16T13:33:27.376Z,70.60
2017-10-16T13:35:54.528Z,70.70
2017-10-16T13:38:21.676Z,70.60
2017-10-16T13:40:48.864Z,70.70
2017-10-16T13:43:16.016Z,70.70
2017-10-16T13:45:44.722Z,71.40
2017-10-16T13:48:11.880Z,70.80
2017-10-16T13:50:39.799Z,70.80
2017-10-16T13:53:06.999Z,70.80
2017-10-16T13:55:34.925Z,70.90
2017-10-16T13:58:02.089Z,70.90
2017-10-16T14:00:29.287Z,70.90
2017-10-16T14:02:57.204Z,70.90
2017-10-16T14:05:24.351Z,71.00
2017-10-16T14:07:51.527Z,71.00
2017-10-16T14:10:18.678Z,70.90
2017-10-16T14:12:45.877Z,70.90
2017-10-16T14:15:13.027Z,71.10
2017-10-16T14:17:40.207Z,71.00
2017-10-16T14:20:07.361Z,71.00
2017-10-16T14:22:34.555Z,71.00
2017-10-16T14:25:02.475Z,71.10
2017-10-16T14:27:29.628Z,71.10
2017-10-16T14:29:56.821Z,71.10
2017-10-16T14:32:24.743Z,71.90
2017-10-16T14:34:51.936Z,71.10
2017-10-16T14:37:19.082Z,71.10
2017-10-16T14:39:46.228Z,71.20
2017-10-16T14:42:13.417Z,71.20
2017-10-16T14:44:40.572Z,71.20
2017-10-16T14:47:07.768Z,71.20
2017-10-16T14:49:34.918Z,71.20
2017-10-16T14:52:02.079Z,71.20
2017-10-16T14:54:29.254Z,71.30
2017-10-16T14:56:57.232Z,71.50
2017-10-16T14:59:25.140Z,71.50
2017-10-16T15:01:52.313Z,71.50
2017-10-16T15:04:19.502Z,71.40
2017-10-16T15:06:47.468Z,71.50
2017-10-16T15:09:15.385Z,71.50
2017-10-16T15:11:42.536Z,71.50
2017-10-16T15:14:09.728Z,71.50
2017-10-16T15:16:36.875Z,72.10
2017-10-16T15:19:04.024Z,71.70
2017-10-16T15:21:31.204Z,71.50
2017-10-16T15:23:59.122Z,71.60
2017-10-16T15:26:27.080Z,71.60
2017-10-16T15:28:54.232Z,71.50
2017-10-16T15:31:21.381Z,71.60
2017-10-16T15:33:48.575Z,71.50
2017-10-16T15:36:15.727Z,71.60
2017-10-16T15:38:42.879Z,71.60
2017-10-16T15:41:10.059Z,71.60
2017-10-16T15:43:37.973Z,71.70
2017-10-16T15:46:05.160Z,71.70
2017-10-16T15:48:33.077Z,71.80
2017-10-16T15:51:00.276Z,72.30
2017-10-16T15:53:27.424Z,72.40
2017-10-16T15:55:54.575Z,72.20
2017-10-16T15:58:21.755Z,71.90
2017-10-16T16:00:48.904Z,71.80
2017-10-16T16:03:16.088Z,71.90
2017-10-16T16:05:44.012Z,71.70
2017-10-16T16:08:12.632Z,72.50
2017-10-16T16:10:39.784Z,72.50
2017-10-16T16:13:06.932Z,72.30
2017-10-16T16:15:34.116Z,71.90
2017-10-16T16:18:01.264Z,71.80
2017-10-16T16:20:29.217Z,71.70
2017-10-16T16:22:56.365Z,71.70
2017-10-16T16:25:23.548Z,71.60
2017-10-16T16:27:50.738Z,71.40
2017-10-16T16:30:18.659Z,71.20
2017-10-16T16:32:45.808Z,71.10
2017-10-16T16:35:12.995Z,71.10
2017-10-16T16:37:40.920Z,71.00
2017-10-16T16:40:08.117Z,71.00
2017-10-16T16:42:36.033Z,70.70
2017-10-16T16:45:03.219Z,70.70
2017-10-16T16:47:30.373Z,70.70
2017-10-16T16:49:57.588Z,70.70
2017-10-16T16:52:24.737Z,70.80
2017-10-16T16:54:51.924Z,70.80
2017-10-16T16:57:19.072Z,70.80
2017-10-16T16:59:46.246Z,70.70
2017-10-16T17:02:14.212Z,71.10
2017-10-16T17:04:42.183Z,71.10
2017-10-16T17:07:10.097Z,71.00
2017-10-16T17:09:37.249Z,71.00
2017-10-16T17:12:04.453Z,70.90
2017-10-16T17:14:32.374Z,71.50
2017-10-16T17:16:59.527Z,70.90
2017-10-16T17:19:26.719Z,70.90
2017-10-16T17:21:53.873Z,71.00
2017-10-16T17:24:21.030Z,71.00
2017-10-16T17:26:48.996Z,71.70
2017-10-16T17:29:16.153Z,71.70
2017-10-16T17:31:44.074Z,72.40
2017-10-16T17:34:11.264Z,72.30
2017-10-16T17:36:38.430Z,72.50
2017-10-16T17:39:06.389Z,71.70
2017-10-16T17:41:33.648Z,71.50
2017-10-16T17:44:01.621Z,71.20
2017-10-16T17:46:29.555Z,71.20
2017-10-16T17:48:56.700Z,71.70
2017-10-16T17:51:24.037Z,71.10
2017-10-16T17:53:51.193Z,71.10
2017-10-16T17:56:18.339Z,71.10
2017-10-16T17:58:45.556Z,71.10
2017-10-16T18:01:13.474Z,71.30
2017-10-16T18:03:40.719Z,71.10
2017-10-16T18:06:07.905Z,71.20
2017-10-16T18:08:35.088Z,71.20
2017-10-16T18:11:03.044Z,71.70
2017-10-16T18:13:30.961Z,71.50
2017-10-16T18:15:58.145Z,71.30
2017-10-16T18:18:25.301Z,71.30
2017-10-16T18:20:52.500Z,71.20
2017-10-16T18:23:19.664Z,71.30
2017-10-16T18:25:46.884Z,71.90
2017-10-16T18:28:14.831Z,71.20
2017-10-16T18:30:42.826Z,71.30
2017-10-16T18:33:10.780Z,71.30
2017-10-16T18:35:38.704Z,71.30
2017-10-16T18:38:05.993Z,71.20
2017-10-16T18:40:33.196Z,71.30
2017-10-16T18:43:00.368Z,71.30
2017-10-16T18:45:27.533Z,71.30
2017-10-16T18:47:54.730Z,71.30
2017-10-16T18:50:22.663Z,71.40
2017-10-16T18:52:49.861Z,71.40
2017-10-16T18:55:17.069Z,71.40
2017-10-16T18:57:44.222Z,71.50
2017-10-16T19:00:11.685Z,71.40
2017-10-16T19:02:39.918Z,71.40
2017-10-16T19:05:07.112Z,71.40
2017-10-16T19:07:34.944Z,71.30
2017-10-16T19:10:03.002Z,71.80
2017-10-16T19:12:30.819Z,71.30
2017-10-16T19:14:58.365Z,71.30
2017-10-16T19:17:25.806Z,71.30
2017-10-16T19:19:52.958Z,71.40
2017-10-16T19:22:20.355Z,71.50
2017-10-16T19:24:48.927Z,71.60
2017-10-16T19:27:17.128Z,71.60
2017-10-16T19:29:44.369Z,71.60
2017-10-16T19:32:11.777Z,71.60
2017-10-16T19:34:39.084Z,71.70
2017-10-16T19:37:07.029Z,71.80
2017-10-16T19:39:34.347Z,71.80
2017-10-16T19:42:01.545Z,72.20
2017-10-16T19:44:28.768Z,71.70
2017-10-16T19:46:55.945Z,71.80
2017-10-16T19:49:23.112Z,71.80
2017-10-16T19:51:51.030Z,71.70
2017-10-16T19:54:18.224Z,71.70
2017-10-16T19:56:45.375Z,71.70
2017-10-16T19:59:12.575Z,71.70
2017-10-16T20:01:39.747Z,71.60
2017-10-16T20:04:06.896Z,71.70
2017-10-16T20:06:34.048Z,71.70
2017-10-16T20:09:01.209Z,71.70
2017-10-16T20:11:28.409Z,71.60
2017-10-16T20:13:56.325Z,71.70
2017-10-16T20:16:23.476Z,71.70
2017-10-16T20:18:50.675Z,72.00
2017-10-16T20:21:18.589Z,71.90
2017-10-16T20:23:45.739Z,71.90
2017-10-16T20:26:12.913Z,71.80
2017-10-16T20:28:40.125Z,71.70
2017-10-16T20:31:07.293Z,71.60
2017-10-16T20:33:34.474Z,71.50
2017-10-16T20:36:01.645Z,71.50
2017-10-16T20:38:29.556Z,71.60
2017-10-16T20:40:56.743Z,71.60
2017-10-16T20:43:23.892Z,71.60
2017-10-16T20:45:51.088Z,71.70
2017-10-16T20:48:18.249Z,71.70
2017-10-16T20:50:45.480Z,71.80
2017-10-16T20:53:13.412Z,72.30
2017-10-16T20:55:40.567Z,72.30
2017-10-16T20:58:07.753Z,72.60
2017-10-16T21:00:35.668Z,72.50
2017-10-16T21:03:02.864Z,72.50
2017-10-16T21:05:30.782Z,72.50
2017-10-16T21:07:57.963Z,72.50
2017-10-16T21:10:25.148Z,72.50
2017-10-16T21:12:53.099Z,72.30
2017-10-16T21:15:20.281Z,72.30
2017-10-16T21:17:47.470Z,72.30
2017-10-16T21:20:14.619Z,72.40
2017-10-16T21:22:41.808Z,72.30
2017-10-16T21:25:09.825Z,72.70
2017-10-16T21:27:37.015Z,72.40
2017-10-16T21:30:04.220Z,72.40
2017-10-16T21:32:31.368Z,72.30
2017-10-16T21:34:58.512Z,72.50
2017-10-16T21:37:26.311Z,72.40
2017-10-16T21:39:53.459Z,72.40
2017-10-16T21:42:20.612Z,72.20
2017-10-16T21:44:48.630Z,72.10
2017-10-16T21:47:16.618Z,72.00
2017-10-16T21:49:43.816Z,72.00
2017-10-16T21:52:10.963Z,71.90
2017-10-16T21:54:38.880Z,72.00
2017-10-16T21:57:06.848Z,72.00
2017-10-16T21:59:34.771Z,72.00
2017-10-16T22:02:02.719Z,71.90
2017-10-16T22:04:29.875Z,71.90
2017-10-16T22:06:57.070Z,71.90
2017-10-16T22:09:24.236Z,72.00
2017-10-16T22:11:52.197Z,72.30
2017-10-16T22:14:19.338Z,72.30
2017-10-16T22:16:46.482Z,72.80
2017-10-16T22:19:13.626Z,72.20
2017-10-16T22:21:40.768Z,72.10
2017-10-16T22:24:07.956Z,72.10
2017-10-16T22:26:35.876Z,72.10
2017-10-16T22:29:03.072Z,72.10
2017-10-16T22:31:30.994Z,72.70
2017-10-16T22:33:58.185Z,72.00
2017-10-16T22:36:25.336Z,71.90
2017-10-16T22:38:52.532Z,71.90
2017-10-16T22:41:19.681Z,72.00
2017-10-16T22:43:46.828Z,72.30
2017-10-16T22:46:14.740Z,72.00
2017-10-16T22:48:42.503Z,71.90
2017-10-16T22:51:09.705Z,71.80
2017-10-16T22:53:38.389Z,71.20
2017-10-16T22:56:06.310Z,71.00
2017-10-16T22:58:33.461Z,71.00
2017-10-16T23:01:00.611Z,70.70
2017-10-16T23:03:27.803Z,70.60
2017-10-16T23:05:54.961Z,70.60
2017-10-16T23:08:22.880Z,70.90
2017-10-16T23:10:50.076Z,70.80
2017-10-16T23:13:17.997Z,70.60
2017-10-16T23:15:45.139Z,71.00
2017-10-16T23:18:12.284Z,71.20
2017-10-16T23:20:39.432Z,71.30
2017-10-16T23:23:06.617Z,71.30
2017-10-16T23:25:33.795Z,71.30
2017-10-16T23:28:00.972Z,71.40
2017-10-16T23:30:28.885Z,71.50
2017-10-16T23:32:56.071Z,71.50
2017-10-16T23:35:23.251Z,71.50
2017-10-16T23:37:50.400Z,71.60
2017-10-16T23:40:17.587Z,71.70
2017-10-16T23:42:44.764Z,71.70
2017-10-16T23:45:11.968Z,71.60
2017-10-16T23:47:39.112Z,71.60
2017-10-16T23:50:06.265Z,71.50
2017-10-16T23:52:33.415Z,71.50
2017-10-16T23:55:00.559Z,71.40
2017-10-16T23:57:27.739Z,71.50
2017-10-16T23:59:54.890Z,71.40
